Time;durP1;ratioP1;P1;durP2;ratioP2;P2;SDS_P1;SDS_P2;PMS_P1;PMS_P2;Temp;Humidity;BMP_temperature;BMP_pressure;BME280_temperature;BME280_humidity;BME280_pressure;Samples;Min_cycle;Max_cycle;Signal;HPM_P1;HPM_P2
2022/07/12 00:00:28;;;;;;;5.07;4.10;;;;;;;15.86;53.08;99367.03;4993042;28;20167;-85
2022/07/12 00:02:54;;;;;;;4.20;3.80;;;;;;;14.50;52.91;99134.31;4992803;28;20167;-84
2022/07/12 00:05:19;;;;;;;4.73;3.73;;;;;;;15.79;52.51;99326.84;4992929;28;20687;-84
2022/07/12 00:07:45;;;;;;;4.07;3.67;;;;;;;15.10;52.13;99220.69;4992917;28;20186;-84
2022/07/12 00:10:10;;;;;;;4.30;3.90;;;;;;;15.26;52.23;99243.16;4992752;28;20214;-84
2022/07/12 00:12:36;;;;;;;4.33;3.73;;;;;;;14.46;52.47;99112.16;4992737;28;20266;-83
2022/07/12 00:15:01;;;;;;;5.20;4.00;;;;;;;15.02;52.80;99222.19;4991676;28;20225;-84
2022/07/12 00:17:26;;;;;;;4.30;3.90;;;;;;;16.39;53.05;99461.81;4992474;28;20191;-83
2022/07/12 00:19:52;;;;;;;5.00;4.13;;;;;;;14.28;53.20;99129.53;4993052;28;20170;-84
2022/07/12 00:22:17;;;;;;;4.73;4.20;;;;;;;13.87;53.98;99064.84;4993381;28;20167;-84
2022/07/12 00:24:43;;;;;;;4.20;3.80;;;;;;;14.65;54.69;99221.31;4993147;28;20187;-82
2022/07/12 00:27:08;;;;;;;4.80;4.23;;;;;;;14.67;54.59;99222.22;4992753;28;20159;-84
2022/07/12 00:29:33;;;;;;;4.73;4.33;;;;;;;15.18;53.45;99306.72;4992645;28;20171;-84
2022/07/12 00:31:59;;;;;;;4.43;4.03;;;;;;;14.70;53.89;99239.25;4991760;28;20174;-84
2022/07/12 00:34:24;;;;;;;4.93;4.00;;;;;;;16.29;53.88;99496.50;4992236;28;20155;-83
2022/07/12 00:36:50;;;;;;;4.70;3.87;;;;;;;14.04;54.16;99142.47;4992365;28;20683;-84
2022/07/12 00:39:15;;;;;;;4.40;4.00;;;;;;;15.46;54.33;99369.50;4992632;28;20167;-83
2022/07/12 00:41:42;;;;;;;4.70;4.30;;;;;;;13.97;54.34;99124.47;4992711;28;20713;-83
2022/07/12 00:44:07;;;;;;;4.57;4.10;;;;;;;16.89;54.95;99619.72;4992002;28;20222;-84
2022/07/12 00:46:33;;;;;;;4.50;3.97;;;;;;;15.17;55.55;99366.19;4991928;28;20694;-83
2022/07/12 00:48:59;;;;;;;6.53;4.33;;;;;;;16.74;55.97;99629.63;4992121;28;20608;-84
2022/07/12 00:51:25;;;;;;;4.87;4.37;;;;;;;16.69;55.37;99650.81;4992298;28;20167;-83
2022/07/12 00:53:52;;;;;;;5.67;4.30;;;;;;;15.12;55.40;99366.91;4992053;28;20163;-83
2022/07/12 00:56:17;;;;;;;5.37;4.30;;;;;;;14.93;54.84;99312.06;4992361;28;20158;-83
2022/07/12 00:58:43;;;;;;;5.07;4.50;;;;;;;15.49;55.06;99410.41;4992332;28;20172;-85
2022/07/12 01:01:10;;;;;;;4.80;4.40;;;;;;;16.20;55.34;99536.34;4992194;28;20600;-84
2022/07/12 01:03:36;;;;;;;5.10;4.27;;;;;;;16.28;55.42;99551.03;4992338;28;20194;-85
2022/07/12 01:06:01;;;;;;;5.00;4.27;;;;;;;15.98;55.32;99511.13;4991100;28;20601;-85
2022/07/12 01:08:27;;;;;;;5.30;4.57;;;;;;;14.00;55.55;99167.81;4992498;28;20170;-85
2022/07/12 01:10:53;;;;;;;5.80;4.30;;;;;;;15.31;55.56;99394.59;4993363;28;20163;-84
2022/07/12 01:13:19;;;;;;;5.87;4.20;;;;;;;15.16;56.18;99384.88;4993053;28;20178;-84
2022/07/12 01:15:48;;;;;;;4.63;4.20;;;;;;;16.35;56.31;99577.56;4992098;28;20171;-84
2022/07/12 01:18:14;;;;;;;4.93;4.33;;;;;;;15.88;56.90;99541.53;4991995;28;20270;-84
2022/07/12 01:20:40;;;;;;;4.70;4.30;;;;;;;13.18;57.45;99104.53;4992997;28;20160;-84
2022/07/12 01:23:06;;;;;;;4.93;4.43;;;;;;;14.19;57.74;99269.31;4992074;28;20171;-84
2022/07/12 01:25:32;;;;;;;4.93;4.43;;;;;;;15.54;58.17;99493.03;4991831;28;20171;-85
2022/07/12 01:27:57;;;;;;;4.40;4.00;;;;;;;16.30;57.66;99615.78;4992432;28;20159;-84
2022/07/12 01:30:23;;;;;;;4.77;4.23;;;;;;;14.04;57.89;99220.53;4992139;28;20191;-84
2022/07/12 01:32:49;;;;;;;4.70;4.10;;;;;;;16.28;57.68;99608.91;4991776;28;20641;-84
2022/07/12 01:35:15;;;;;;;4.90;4.33;;;;;;;15.53;58.15;99488.72;4991887;28;20178;-84
2022/07/12 01:37:42;;;;;;;4.80;4.27;;;;;;;16.33;57.75;99602.22;4992045;28;20191;-85
2022/07/12 01:40:09;;;;;;;5.73;4.20;;;;;;;14.14;57.85;99236.09;4991650;28;20238;-84
2022/07/12 01:42:35;;;;;;;4.90;4.40;;;;;;;14.04;57.96;99221.38;4993577;28;20163;-84
2022/07/12 01:45:01;;;;;;;4.93;4.17;;;;;;;15.33;58.59;99466.91;4995554;28;20313;-86
2022/07/12 01:47:29;;;;;;;5.30;4.50;;;;;;;16.21;59.00;99612.13;4995424;28;20242;-85
2022/07/12 01:49:54;;;;;;;4.70;4.23;;;;;;;16.11;59.69;99610.19;4995261;28;20230;-84
2022/07/12 01:52:20;;;;;;;5.27;4.67;;;;;;;16.15;59.91;99612.00;4995064;28;20176;-85
2022/07/12 01:54:46;;;;;;;5.10;4.60;;;;;;;15.74;60.96;99580.31;4995133;28;20156;-85
2022/07/12 01:57:12;;;;;;;5.03;4.50;;;;;;;15.49;61.67;99534.56;4994738;28;20199;-84
2022/07/12 01:59:38;;;;;;;7.23;4.90;;;;;;;13.97;62.64;99297.53;4995329;28;20174;-85
2022/07/12 02:02:03;;;;;;;5.57;4.83;;;;;;;15.93;63.04;99615.72;4994725;28;20187;-85
2022/07/12 02:04:29;;;;;;;5.13;4.57;;;;;;;12.69;64.87;99147.03;4994710;28;20615;-82
2022/07/12 02:06:56;;;;;;;5.80;5.20;;;;;;;15.44;65.83;99620.28;4994593;28;20206;-84
2022/07/12 02:09:21;;;;;;;5.93;4.93;;;;;;;14.82;66.58;99519.03;4994801;28;20673;-83
2022/07/12 02:11:47;;;;;;;7.80;4.90;;;;;;;13.92;66.18;99371.22;4994755;28;20262;-83
2022/07/12 02:14:13;;;;;;;5.50;4.60;;;;;;;12.96;66.30;99232.56;4995080;28;20246;-84
2022/07/12 02:16:40;;;;;;;7.27;5.00;;;;;;;15.41;65.49;99613.38;4994667;28;20195;-83
2022/07/12 02:19:06;;;;;;;5.90;4.60;;;;;;;14.02;64.90;99365.56;4994522;28;20166;-84
2022/07/12 02:21:33;;;;;;;6.37;4.63;;;;;;;14.65;64.14;99455.72;4994385;28;20172;-84
2022/07/12 02:23:59;;;;;;;5.27;4.77;;;;;;;13.90;64.00;99331.28;4994825;28;20174;-83
2022/07/12 02:26:25;;;;;;;5.43;4.30;;;;;;;15.47;64.32;99651.00;4994402;28;20151;-84
2022/07/12 02:28:50;;;;;;;6.03;4.63;;;;;;;15.14;65.22;99593.06;4994465;28;20174;-83
2022/07/12 02:31:16;;;;;;;6.43;4.83;;;;;;;14.73;65.20;99546.00;4994325;28;20163;-83
2022/07/12 02:33:42;;;;;;;6.23;5.00;;;;;;;13.54;64.64;99331.88;4995873;28;20171;-84
2022/07/12 02:36:07;;;;;;;7.17;4.90;;;;;;;11.72;64.19;99039.84;4994966;28;20162;-85
2022/07/12 02:38:33;;;;;;;5.70;4.80;;;;;;;15.32;63.76;99618.25;4994478;28;20250;-85
2022/07/12 02:40:58;;;;;;;5.10;4.67;;;;;;;13.47;63.79;99324.91;4994367;28;20620;-85
2022/07/12 02:43:26;;;;;;;5.43;4.73;;;;;;;12.63;63.70;99183.28;4994663;28;20174;-85
2022/07/12 02:45:53;;;;;;;5.80;5.20;;;;;;;15.32;63.44;99623.34;4994298;28;20223;-85
2022/07/12 02:48:19;;;;;;;5.00;4.50;;;;;;;14.92;63.30;99549.06;4994477;28;21353;-84
2022/07/12 02:50:45;;;;;;;5.37;4.33;;;;;;;15.34;62.97;99630.22;4994082;28;20668;-84
2022/07/12 02:53:11;;;;;;;6.70;4.73;;;;;;;15.42;62.53;99632.97;4993538;28;20168;-83
2022/07/12 02:55:37;;;;;;;5.77;4.73;;;;;;;14.73;62.17;99502.69;4997058;28;20202;-84
2022/07/12 02:58:03;;;;;;;6.67;4.90;;;;;;;13.33;60.78;99241.38;4994796;28;20207;-84
2022/07/12 03:00:29;;;;;;;6.10;4.40;;;;;;;15.24;60.64;99582.31;4994435;28;20167;-85
2022/07/12 03:02:55;;;;;;;5.57;4.60;;;;;;;12.49;60.20;99112.53;4993659;28;20251;-84
2022/07/12 03:05:20;;;;;;;5.17;4.33;;;;;;;12.85;59.98;99178.06;4993662;28;20283;-84
2022/07/12 03:07:46;;;;;;;5.70;4.93;;;;;;;15.67;59.88;99632.00;4993684;28;20684;-84
2022/07/12 03:10:11;;;;;;;4.40;4.00;;;;;;;13.82;58.55;99327.63;4993929;28;20171;-84
2022/07/12 03:12:37;;;;;;;6.53;4.97;;;;;;;14.81;58.19;99479.09;4994127;28;20556;-84
2022/07/12 03:15:04;;;;;;;4.50;4.10;;;;;;;15.41;57.48;99562.38;4995803;28;20195;-84
2022/07/12 03:17:29;;;;;;;5.00;4.40;;;;;;;13.87;56.07;99270.13;4994188;28;20269;-83
2022/07/12 03:19:55;;;;;;;5.20;4.30;;;;;;;16.09;56.12;99647.59;4993635;28;20621;-85
2022/07/12 03:22:20;;;;;;;5.10;4.37;;;;;;;15.30;56.34;99556.09;4993866;28;20755;-84
2022/07/12 03:24:45;;;;;;;5.30;4.80;;;;;;;16.09;56.65;99660.38;4993935;28;20552;-85
2022/07/12 03:27:11;;;;;;;5.53;4.80;;;;;;;13.81;57.16;99257.22;4993895;28;20167;-84
2022/07/12 03:29:36;;;;;;;7.30;5.53;;;;;;;15.58;57.72;99583.25;4991985;28;20647;-84
2022/07/12 03:32:03;;;;;;;6.00;5.40;;;;;;;12.94;57.91;99131.72;4993056;28;20752;-84
2022/07/12 03:34:28;;;;;;;6.73;5.00;;;;;;;15.35;57.58;99534.16;4993942;28;20249;-84
2022/07/12 03:36:54;;;;;;;9.90;5.23;;;;;;;13.90;57.92;99252.38;4993914;28;20274;-84
2022/07/12 03:39:19;;;;;;;7.60;5.13;;;;;;;15.91;58.95;99592.66;4991502;28;20706;-85
2022/07/12 03:41:45;;;;;;;7.80;5.40;;;;;;;14.71;58.90;99394.75;4992909;28;20168;-83
2022/07/12 03:44:10;;;;;;;6.97;5.13;;;;;;;13.74;57.47;99207.81;4992711;28;20167;-84
2022/07/12 03:46:36;;;;;;;5.00;4.50;;;;;;;14.02;56.45;99280.72;4992951;28;20242;-83
2022/07/12 03:49:01;;;;;;;5.60;4.40;;;;;;;14.27;55.45;99316.22;4992624;28;20615;-83
2022/07/12 03:51:27;;;;;;;7.43;4.40;;;;;;;15.29;54.67;99476.19;4992811;28;20542;-83
2022/07/12 03:53:52;;;;;;;4.93;4.43;;;;;;;16.13;54.27;99590.63;4992953;28;20623;-84
2022/07/12 03:59:03;;;;;;;6.87;5.70;;;;;;;16.62;57.28;99667.69;4993882;28;20182;-84
2022/07/12 04:01:28;;;;;;;9.73;6.10;;;;;;;16.72;58.48;99677.31;4992966;28;20190;-84
2022/07/12 04:03:56;;;;;;;7.60;5.67;;;;;;;16.33;58.24;99617.53;4992959;28;20628;-84
2022/07/12 04:06:21;;;;;;;6.33;5.20;;;;;;;16.82;57.98;99678.38;4992801;28;20160;-84
2022/07/12 04:08:46;;;;;;;6.93;5.17;;;;;;;14.43;57.67;99284.41;4992860;28;20605;-83
2022/07/12 04:11:12;;;;;;;9.20;5.80;;;;;;;16.91;57.65;99674.34;4992389;28;20655;-83
2022/07/12 04:13:38;;;;;;;9.03;5.87;;;;;;;17.14;58.74;99681.69;4992652;28;20166;-83
2022/07/12 04:16:04;;;;;;;8.07;5.87;;;;;;;14.94;58.96;99311.25;4992293;28;20179;-84
2022/07/12 04:18:29;;;;;;;6.40;5.67;;;;;;;15.56;59.16;99422.47;4992873;28;20254;-84
2022/07/12 04:20:54;;;;;;;6.23;5.10;;;;;;;15.10;58.70;99343.06;4993580;28;20281;-87
2022/07/12 04:23:20;;;;;;;8.10;6.27;;;;;;;15.63;58.73;99429.44;4975972;28;20282;-86
2022/07/12 04:25:45;;;;;;;7.37;6.07;;;;;;;16.11;58.13;99500.34;4986719;28;20191;-85
2022/07/12 04:28:10;;;;;;;9.27;5.80;;;;;;;15.24;57.02;99308.56;4991191;28;20187;-87
2022/07/12 04:30:36;;;;;;;7.40;6.00;;;;;;;16.26;56.72;99462.41;4991640;28;20618;-86
2022/07/12 04:33:01;;;;;;;8.73;6.00;;;;;;;15.39;56.47;99331.88;4991786;28;20186;-87
2022/07/12 04:35:27;;;;;;;9.03;5.60;;;;;;;16.81;57.38;99605.91;4989382;28;20685;-86
2022/07/12 04:37:52;;;;;;;6.67;5.67;;;;;;;14.17;57.33;99129.22;4991872;28;20702;-87
2022/07/12 04:40:17;;;;;;;6.23;5.23;;;;;;;16.22;57.96;99527.88;4991689;28;20202;-86
2022/07/12 04:42:43;;;;;;;7.30;5.37;;;;;;;17.18;58.89;99693.69;4991470;28;20652;-86
2022/07/12 04:45:08;;;;;;;5.67;5.07;;;;;;;16.48;58.27;99559.97;4990168;28;20226;-87
2022/07/12 04:47:37;;;;;;;6.67;4.93;;;;;;;16.09;57.57;99471.38;4991283;28;21139;-86
2022/07/12 04:50:07;;;;;;;5.70;5.00;;;;;;;16.01;56.35;99421.81;4990968;28;20567;-85
2022/07/12 04:52:34;;;;;;;6.67;5.30;;;;;;;15.21;56.12;99267.69;5003220;28;20203;-85
2022/07/12 04:54:59;;;;;;;5.27;4.40;;;;;;;17.48;55.13;99650.84;4994252;28;20186;-86
2022/07/12 04:57:24;;;;;;;9.13;4.80;;;;;;;16.94;54.67;99550.81;4991606;28;20210;-85
2022/07/12 04:59:50;;;;;;;6.10;4.40;;;;;;;17.31;53.79;99601.88;4990808;28;20182;-85
2022/07/12 05:02:15;;;;;;;7.20;4.43;;;;;;;14.77;53.56;99170.66;4991138;28;20266;-85
2022/07/12 05:04:41;;;;;;;5.03;4.33;;;;;;;17.23;53.51;99570.16;4990263;28;20268;-85
2022/07/12 05:07:06;;;;;;;6.83;4.47;;;;;;;17.84;52.82;99641.34;4991924;28;20255;-87
2022/07/12 05:09:32;;;;;;;5.90;4.50;;;;;;;18.23;52.89;99726.63;4990250;28;20222;-87
2022/07/12 05:11:57;;;;;;;4.53;4.10;;;;;;;16.77;52.45;99454.97;4986295;28;20191;-88
2022/07/12 05:14:23;;;;;;;7.80;4.73;;;;;;;16.63;51.75;99418.91;4986838;28;20206;-88
2022/07/12 05:16:48;;;;;;;7.87;4.67;;;;;;;17.76;51.11;99608.75;4970364;28;20251;-87
2022/07/12 05:19:15;;;;;;;6.43;4.23;;;;;;;17.01;50.92;99481.88;4994506;28;20217;-87
2022/07/12 05:21:42;;;;;;;6.10;4.10;;;;;;;16.92;50.83;99430.56;4995285;28;20191;-88
2022/07/12 05:24:08;;;;;;;5.13;4.20;;;;;;;18.69;50.87;99706.94;4996161;28;20179;-87
2022/07/12 05:26:33;;;;;;;5.23;3.87;;;;;;;16.74;50.28;99398.66;5005063;28;20202;-86
2022/07/12 05:28:59;;;;;;;4.90;3.87;;;;;;;16.91;49.66;99395.59;4994835;28;20656;-88
2022/07/12 05:31:25;;;;;;;4.80;3.77;;;;;;;16.73;49.18;99356.88;4995205;28;20222;-88
2022/07/12 05:33:50;;;;;;;4.37;3.80;;;;;;;17.24;48.87;99450.75;4977361;28;20267;-87
2022/07/12 05:36:16;;;;;;;4.23;3.83;;;;;;;17.35;48.44;99418.53;4995006;28;20207;-88
2022/07/12 05:38:41;;;;;;;6.27;3.90;;;;;;;17.55;48.52;99460.72;4995562;28;20210;-88
2022/07/12 05:41:07;;;;;;;4.40;3.83;;;;;;;17.92;48.70;99496.34;4994618;28;20250;-87
2022/07/12 05:43:32;;;;;;;6.50;3.83;;;;;;;17.69;47.79;99408.88;4977014;28;20592;-84
2022/07/12 05:45:57;;;;;;;5.13;3.90;;;;;;;18.81;47.05;99584.00;4994482;28;20730;-86
2022/07/12 05:48:23;;;;;;;5.87;3.80;;;;;;;18.35;47.52;99525.19;4977091;28;20716;-87
2022/07/12 05:50:48;;;;;;;9.10;4.10;;;;;;;17.70;47.04;99420.00;4976981;28;20575;-86
2022/07/12 05:53:23;;;;;;;6.23;3.70;;;;;;;18.15;47.33;99460.81;4993362;28;20246;-86
2022/07/12 05:55:52;;;;;;;6.53;4.40;;;;;;;19.75;46.48;99705.91;4994282;28;20178;-87
2022/07/12 05:58:19;;;;;;;4.23;3.60;;;;;;;19.76;46.36;99707.63;4994613;28;20241;-84
2022/07/12 06:00:46;;;;;;;6.57;3.87;;;;;;;19.11;46.55;99633.16;4992791;28;20198;-85
2022/07/12 06:03:13;;;;;;;4.17;3.53;;;;;;;18.45;45.95;99429.59;4994484;28;20187;-86
2022/07/12 06:05:38;;;;;;;5.47;3.63;;;;;;;19.51;46.25;99643.94;4993983;28;20683;-85
2022/07/12 06:08:04;;;;;;;9.13;3.87;;;;;;;20.20;46.39;99696.09;4993866;28;20175;-84
2022/07/12 06:10:29;;;;;;;5.87;3.70;;;;;;;19.53;45.61;99554.97;4993600;28;20274;-86
2022/07/12 06:12:55;;;;;;;4.03;3.40;;;;;;;20.25;46.08;99689.31;4993466;28;20175;-86
2022/07/12 06:15:20;;;;;;;3.80;3.37;;;;;;;20.05;46.06;99671.97;4993894;28;20334;-86
2022/07/12 06:17:47;;;;;;;4.17;3.57;;;;;;;19.97;45.40;99610.19;4983883;28;20687;-86
2022/07/12 06:20:13;;;;;;;4.93;3.17;;;;;;;20.00;45.32;99587.09;4975568;28;20190;-85
2022/07/12 06:22:39;;;;;;;6.10;3.53;;;;;;;20.38;45.69;99668.00;4993387;28;20581;-85
2022/07/12 06:25:05;;;;;;;4.23;3.50;;;;;;;18.24;45.23;99258.47;4993494;28;20694;-88
2022/07/12 06:27:30;;;;;;;4.07;3.43;;;;;;;20.05;44.88;99538.31;4993518;28;20185;-86
2022/07/12 06:29:55;;;;;;;3.87;3.43;;;;;;;20.03;45.25;99518.59;4991903;28;20270;-83
2022/07/12 06:32:21;;;;;;;5.70;3.30;;;;;;;19.93;44.52;99449.13;4993269;28;20635;-87
2022/07/12 06:34:46;;;;;;;5.23;3.37;;;;;;;19.95;45.02;99511.66;4977458;28;20194;-84
2022/07/12 06:37:13;;;;;;;5.20;3.40;;;;;;;20.15;45.09;99512.69;4995733;28;20234;-87
2022/07/12 06:39:38;;;;;;;5.23;3.20;;;;;;;21.25;44.70;99645.47;4993770;28;20183;-86
2022/07/12 06:42:04;;;;;;;5.50;3.03;;;;;;;20.74;44.74;99574.81;4976729;28;20194;-87
2022/07/12 06:44:30;;;;;;;6.03;3.93;;;;;;;20.63;44.92;99550.72;4995308;28;20636;-85
2022/07/12 06:46:56;;;;;;;5.83;3.30;;;;;;;21.35;44.25;99622.34;4996178;28;20325;-84
2022/07/12 06:49:22;;;;;;;4.80;3.33;;;;;;;20.49;44.75;99446.94;4993774;28;20582;-86
2022/07/12 06:51:47;;;;;;;5.00;3.17;;;;;;;21.63;43.73;99649.06;4992697;28;20215;-83
2022/07/12 06:54:13;;;;;;;4.50;3.00;;;;;;;21.16;43.29;99558.75;4993131;28;20648;-84
2022/07/12 06:56:38;;;;;;;4.67;3.00;;;;;;;20.86;42.88;99486.50;4994547;28;20211;-84
2022/07/12 06:59:04;;;;;;;4.23;2.97;;;;;;;20.67;42.85;99428.13;4997485;28;20656;-86
2022/07/12 07:01:29;;;;;;;4.97;3.30;;;;;;;20.45;42.55;99350.88;4997935;28;20262;-88
2022/07/12 07:03:54;;;;;;;3.20;2.90;;;;;;;21.49;43.99;99636.13;4995238;28;20273;-89
2022/07/12 07:06:20;;;;;;;5.30;3.43;;;;;;;19.79;43.71;99328.25;4993744;28;20294;-88
2022/07/12 07:08:45;;;;;;;9.10;3.33;;;;;;;21.07;43.27;99486.59;4994276;28;20337;-88
2022/07/12 07:11:11;;;;;;;4.27;2.80;;;;;;;21.49;42.17;99529.66;4977511;28;20186;-87
2022/07/12 07:13:37;;;;;;;7.73;3.27;;;;;;;22.48;41.77;99660.44;4993207;28;20187;-87
2022/07/12 07:16:02;;;;;;;6.10;2.73;;;;;;;21.28;41.54;99460.94;4993739;28;20183;-87
2022/07/12 07:18:28;;;;;;;5.33;2.90;;;;;;;20.57;42.16;99356.03;4981553;28;20233;-85
2022/07/12 07:20:53;;;;;;;5.50;2.90;;;;;;;19.97;41.53;99175.88;4993014;28;20187;-85
2022/07/12 07:23:19;;;;;;;7.27;3.10;;;;;;;22.39;40.38;99552.06;4992734;28;20187;-88
2022/07/12 07:25:46;;;;;;;4.33;2.70;;;;;;;21.96;40.25;99491.94;4992517;28;20183;-84
2022/07/12 07:28:11;;;;;;;4.90;2.50;;;;;;;21.02;40.33;99390.47;4992840;28;20198;-85
2022/07/12 07:30:52;;;;;;;4.97;2.70;;;;;;;23.10;39.72;99651.78;4991779;28;20651;-83
2022/07/12 07:33:25;;;;;;;4.20;2.60;;;;;;;22.60;40.55;99513.31;4992429;28;20223;-87
2022/07/12 07:35:51;;;;;;;6.93;2.87;;;;;;;22.20;40.66;99509.94;4991494;28;20187;-86
2022/07/12 07:38:19;;;;;;;6.60;2.90;;;;;;;20.46;40.68;99151.16;4992366;28;20305;-86
2022/07/12 07:40:44;;;;;;;4.83;2.80;;;;;;;23.02;39.89;99599.28;4993284;28;20191;-87
2022/07/12 07:43:10;;;;;;;2.63;2.10;;;;;;;22.82;38.65;99527.91;4994446;28;20194;-85
2022/07/12 07:45:36;;;;;;;6.85;2.60;;;;;;;22.64;38.10;99400.63;4993709;28;20805;-87
2022/07/12 07:48:01;;;;;;;4.77;2.30;;;;;;;23.64;36.74;99599.91;4991671;28;20191;-84
2022/07/12 07:50:27;;;;;;;3.40;2.30;;;;;;;23.96;36.71;99647.09;4991948;28;20175;-86
2022/07/12 07:52:53;;;;;;;2.20;2.00;;;;;;;23.64;37.15;99636.09;4991984;28;20699;-86
2022/07/12 07:55:19;;;;;;;3.60;2.20;;;;;;;22.58;37.08;99357.59;4992369;28;20194;-84
2022/07/12 07:57:45;;;;;;;2.43;2.03;;;;;;;23.18;36.63;99563.06;4990810;28;20697;-84
2022/07/12 08:00:12;;;;;;;2.87;2.10;;;;;;;23.49;37.53;99636.16;4989200;28;20199;-85
2022/07/12 08:02:37;;;;;;;4.47;2.23;;;;;;;23.59;36.96;99588.72;4990633;28;20175;-83
2022/07/12 08:05:03;;;;;;;2.90;1.90;;;;;;;23.80;36.26;99613.59;4990211;28;20190;-84
2022/07/12 08:07:29;;;;;;;5.33;2.10;;;;;;;23.97;36.57;99579.00;4989665;28;20186;-85
2022/07/12 08:09:54;;;;;;;3.77;2.00;;;;;;;24.06;34.99;99508.22;4991649;28;20190;-86
2022/07/12 08:12:19;;;;;;;6.10;2.30;;;;;;;24.34;33.38;99495.88;4991135;28;20183;-84
2022/07/12 08:14:45;;;;;;;4.17;2.00;;;;;;;24.40;33.62;99469.94;4992399;28;20270;-85
2022/07/12 08:17:10;;;;;;;2.63;2.13;;;;;;;24.69;33.08;99529.19;4992223;28;20211;-85
2022/07/12 08:19:37;;;;;;;2.10;1.80;;;;;;;24.34;34.61;99604.59;4961653;28;20247;-85
2022/07/12 08:22:03;;;;;;;4.97;2.20;;;;;;;25.04;34.85;99630.72;4972373;28;20191;-83
2022/07/12 08:24:29;;;;;;;9.33;2.40;;;;;;;25.60;33.69;99625.72;4972838;28;20675;-83
2022/07/12 08:26:54;;;;;;;7.20;2.13;;;;;;;24.32;33.81;99388.94;4970590;28;20188;-86
2022/07/12 08:29:19;;;;;;;3.97;2.20;;;;;;;23.61;34.84;99444.81;4976713;28;20217;-87
2022/07/12 08:31:45;;;;;;;7.40;2.63;;;;;;;24.60;34.83;99535.31;4991436;28;20270;-85
2022/07/12 08:34:11;;;;;;;4.43;2.30;;;;;;;23.90;33.71;99375.59;4991746;28;20189;-84
2022/07/12 08:36:36;;;;;;;4.03;2.10;;;;;;;23.91;33.77;99340.25;4991554;28;20187;-85
2022/07/12 08:39:03;;;;;;;2.70;2.00;;;;;;;24.05;33.06;99465.97;4989926;28;20182;-85
2022/07/12 08:41:29;;;;;;;3.43;1.80;;;;;;;24.90;33.82;99565.22;4990529;28;20198;-85
2022/07/12 08:43:55;;;;;;;3.47;2.00;;;;;;;23.03;33.83;99268.69;4991065;28;20577;-84
2022/07/12 08:46:20;;;;;;;3.63;1.90;;;;;;;24.07;32.66;99409.03;4991099;28;20234;-84
2022/07/12 08:48:46;;;;;;;5.37;2.30;;;;;;;25.11;32.38;99528.69;4990522;28;20195;-85
2022/07/12 08:51:13;;;;;;;6.30;2.47;;;;;;;24.26;32.84;99299.31;4990604;28;20175;-84
2022/07/12 08:53:40;;;;;;;6.20;2.47;;;;;;;26.10;32.21;99548.88;4991185;28;20179;-84
2022/07/12 08:56:06;;;;;;;4.47;2.00;;;;;;;24.94;31.42;99372.63;4990823;28;20202;-84
2022/07/12 08:58:32;;;;;;;4.03;2.20;;;;;;;26.35;31.36;99596.94;4990779;28;20199;-85
2022/07/12 09:00:57;;;;;;;5.00;2.43;;;;;;;26.64;31.76;99604.25;4990974;28;20193;-85
2022/07/12 09:03:23;;;;;;;6.37;3.67;;;;;;;25.68;31.40;99501.97;4990773;28;20175;-84
2022/07/12 09:05:53;;;;;;;3.83;1.90;;;;;;;26.06;31.71;99588.75;4991948;28;20316;-85
2022/07/12 09:08:28;;;;;;;4.60;2.10;;;;;;;25.49;32.30;99510.91;4992444;28;20182;-84
2022/07/12 09:10:57;;;;;;;2.33;1.60;;;;;;;23.44;32.98;99331.22;4992866;28;20262;-85
2022/07/12 09:13:46;;;;;;;3.10;2.00;;;;;;;25.47;32.86;99595.66;4968753;28;20180;-85
2022/07/12 09:16:13;;;;;;;3.73;2.00;;;;;;;26.19;32.29;99570.38;4973614;28;20231;-86
2022/07/12 09:18:38;;;;;;;6.27;2.90;;;;;;;25.37;30.88;99321.84;4962101;28;20231;-85
2022/07/12 09:21:04;;;;;;;4.80;2.20;;;;;;;25.40;30.13;99214.66;4972450;28;20184;-86
2022/07/12 09:23:29;;;;;;;4.38;2.30;;;;;;;27.23;29.16;99536.38;4985950;28;20193;-87
2022/07/12 09:25:54;;;;;;;3.17;1.88;;;;;;;25.64;29.46;99408.69;4990012;28;20184;-87
2022/07/12 09:28:20;;;;;;;4.40;2.05;;;;;;;25.03;28.71;99223.09;4980777;28;20216;-87
2022/07/12 09:30:53;;;;;;;8.80;2.50;;;;;;;26.92;29.41;99530.09;4991652;28;20215;-86
2022/07/12 09:36:07;;;;;;;5.80;2.15;;;;;;;27.48;29.04;99583.53;4991854;28;20252;-88
2022/07/12 09:38:37;;;;;;;2.08;1.95;;;;;;;26.12;30.92;99566.13;4991062;28;20232;-87
2022/07/12 09:41:03;;;;;;;3.60;1.80;;;;;;;23.90;30.76;99379.88;4992253;28;20175;-88
2022/07/12 09:43:30;;;;;;;4.00;1.83;;;;;;;23.71;30.91;99177.56;4991631;28;20206;-86
2022/07/12 09:45:55;;;;;;;3.93;2.03;;;;;;;26.90;29.08;99583.84;4993774;28;20223;-91
2022/07/12 09:48:21;;;;;;;4.07;2.00;;;;;;;26.58;29.90;99586.16;4994552;28;20214;-87
2022/07/12 09:50:49;;;;;;;4.27;1.70;;;;;;;25.86;30.22;99541.47;4977877;28;20222;-86
2022/07/12 09:53:21;;;;;;;4.33;1.90;;;;;;;25.12;30.48;99453.53;5006549;28;20202;-86
2022/07/12 09:55:50;;;;;;;2.37;1.83;;;;;;;24.33;29.62;99259.56;4993411;28;20183;-88
2022/07/12 09:58:22;;;;;;;3.47;2.00;;;;;;;25.67;29.19;99427.66;4994630;28;20218;-87
2022/07/12 10:00:51;;;;;;;10.48;3.75;;;;;;;26.79;29.64;99552.00;4995780;28;20187;-87
2022/07/12 10:03:20;;;;;;;4.57;2.08;;;;;;;25.94;28.46;99420.28;4992016;28;20739;-86
2022/07/12 10:05:46;;;;;;;11.85;8.10;;;;;;;26.13;28.84;99522.88;4993275;28;20192;-87
2022/07/12 10:08:12;;;;;;;9.73;3.83;;;;;;;24.62;29.36;99202.16;4993778;28;20184;-85
2022/07/12 10:10:38;;;;;;;3.17;2.28;;;;;;;26.47;29.62;99562.13;4978180;28;20286;-86
2022/07/12 10:13:04;;;;;;;6.65;2.22;;;;;;;25.13;29.95;99359.38;4994793;28;20195;-86
2022/07/12 10:15:31;;;;;;;3.67;1.80;;;;;;;25.35;29.13;99286.47;4995019;28;20215;-85
2022/07/12 10:17:58;;;;;;;5.32;2.00;;;;;;;24.21;29.15;99161.41;4983349;28;20306;-87
2022/07/12 10:20:29;;;;;;;3.17;2.13;;;;;;;26.64;29.63;99554.88;4994802;28;20243;-85
2022/07/12 10:23:16;;;;;;;5.82;2.22;;;;;;;27.19;28.98;99554.69;4995231;28;20184;-86
2022/07/12 10:25:42;;;;;;;5.32;2.08;;;;;;;27.28;28.64;99554.47;4994569;28;20177;-86
2022/07/12 10:28:08;;;;;;;4.40;2.00;;;;;;;26.52;29.52;99457.28;4993566;28;20604;-87
2022/07/12 10:30:45;;;;;;;3.72;1.95;;;;;;;27.17;28.19;99548.63;4994383;28;20186;-86
2022/07/12 10:33:23;;;;;;;5.50;2.40;;;;;;;27.56;28.80;99546.94;4994266;28;20559;-87
2022/07/12 10:36:02;;;;;;;4.78;2.30;;;;;;;27.26;29.23;99538.03;4993456;28;20257;-85
2022/07/12 10:38:29;;;;;;;3.55;2.10;;;;;;;26.53;29.13;99539.50;4993017;28;20210;-84
2022/07/12 10:40:54;;;;;;;3.03;2.10;;;;;;;25.90;29.99;99431.59;4975891;28;20196;-85
2022/07/12 10:46:21;;;;;;;5.30;3.10;;;;;;;26.74;29.02;99421.31;4993097;28;20303;-84
2022/07/12 10:48:47;;;;;;;6.00;2.60;;;;;;;27.05;29.17;99528.97;4993829;28;20660;-87
2022/07/12 10:51:15;;;;;;;3.03;2.40;;;;;;;25.58;30.92;99328.41;4993642;28;20238;-85
2022/07/12 10:53:42;;;;;;;4.15;2.20;;;;;;;26.34;30.33;99474.03;4993666;28;20182;-86
2022/07/12 10:56:18;;;;;;;3.83;2.45;;;;;;;26.44;31.06;99507.63;4993284;28;20234;-88
2022/07/12 10:58:50;;;;;;;6.47;2.70;;;;;;;25.03;29.93;99145.38;4992856;28;20221;-86
2022/07/12 11:01:18;;;;;;;4.47;2.33;;;;;;;27.06;30.38;99532.44;4993807;28;20177;-86
2022/07/12 11:03:51;;;;;;;4.43;2.33;;;;;;;25.53;29.93;99289.59;4993125;28;20618;-86
2022/07/12 11:06:22;;;;;;;3.65;2.40;;;;;;;26.45;31.06;99414.16;4992438;28;20197;-84
2022/07/12 11:08:47;;;;;;;5.25;2.60;;;;;;;27.52;30.32;99518.41;4996879;28;20245;-86
2022/07/12 11:11:13;;;;;;;3.83;2.42;;;;;;;25.23;30.23;99197.69;4975043;28;20188;-86
2022/07/12 11:13:38;;;;;;;4.88;2.50;;;;;;;24.68;29.95;99062.25;4992418;28;20351;-84
2022/07/12 11:16:04;;;;;;;3.17;2.40;;;;;;;25.92;30.19;99290.59;4992285;28;20271;-85
2022/07/12 11:18:30;;;;;;;6.75;2.25;;;;;;;24.99;30.85;99186.91;4981502;28;20693;-87
2022/07/12 11:21:00;;;;;;;5.03;2.10;;;;;;;26.87;30.90;99514.59;4975336;28;20191;-86
2022/07/12 11:23:26;;;;;;;3.00;2.33;;;;;;;25.95;30.15;99370.97;4993003;28;20204;-85
2022/07/12 11:26:00;;;;;;;4.90;2.33;;;;;;;25.57;30.31;99254.94;4998203;28;20288;-86
2022/07/12 11:28:30;;;;;;;6.22;2.72;;;;;;;25.43;30.13;99266.44;4993321;28;20176;-86
2022/07/12 11:31:07;;;;;;;7.38;2.80;;;;;;;27.43;29.70;99513.44;4973479;28;20702;-84
2022/07/12 11:33:36;;;;;;;5.30;2.40;;;;;;;27.29;29.62;99506.78;4973206;28;20229;-84
2022/07/12 11:36:07;;;;;;;4.57;2.80;;;;;;;26.56;29.50;99323.03;4987809;28;20192;-84
2022/07/12 11:38:38;;;;;;;4.18;2.42;;;;;;;26.95;29.51;99333.38;4973561;28;20217;-85